sensor_id;sensor_type;location;lat;lon;timestamp;P1;durP1;ratioP1;P2;durP2;ratioP2
55417;SDS011;41287;47.554;7.844;2022-11-15T00:01:52;22.50;;;16.73;;
55417;SDS011;41287;47.554;7.844;2022-11-15T00:04:17;20.17;;;14.68;;
55417;SDS011;41287;47.554;7.844;2022-11-15T00:06:43;20.58;;;15.98;;
55417;SDS011;41287;47.554;7.844;2022-11-15T00:09:08;22.75;;;17.23;;
55417;SDS011;41287;47.554;7.844;2022-11-15T00:11:33;20.55;;;15.93;;
55417;SDS011;41287;47.554;7.844;2022-11-15T00:13:59;23.98;;;16.13;;
55417;SDS011;41287;47.554;7.844;2022-11-15T00:16:27;22.35;;;16.60;;
55417;SDS011;41287;47.554;7.844;2022-11-15T00:18:52;22.33;;;16.55;;
55417;SDS011;41287;47.554;7.844;2022-11-15T00:21:18;19.65;;;15.60;;
55417;SDS011;41287;47.554;7.844;2022-11-15T00:23:45;23.63;;;15.80;;
55417;SDS011;41287;47.554;7.844;2022-11-15T00:26:12;23.73;;;16.27;;
55417;SDS011;41287;47.554;7.844;2022-11-15T00:28:38;22.52;;;15.40;;
55417;SDS011;41287;47.554;7.844;2022-11-15T00:31:05;22.20;;;15.18;;
55417;SDS011;41287;47.554;7.844;2022-11-15T00:33:32;21.58;;;16.33;;
55417;SDS011;41287;47.554;7.844;2022-11-15T00:36:02;20.95;;;16.30;;
55417;SDS011;41287;47.554;7.844;2022-11-15T00:38:32;23.50;;;16.40;;
55417;SDS011;41287;47.554;7.844;2022-11-15T00:40:59;21.63;;;15.63;;
55417;SDS011;41287;47.554;7.844;2022-11-15T00:43:25;23.02;;;16.42;;
55417;SDS011;41287;47.554;7.844;2022-11-15T00:45:50;18.55;;;13.82;;
55417;SDS011;41287;47.554;7.844;2022-11-15T00:48:15;19.50;;;14.50;;
55417;SDS011;41287;47.554;7.844;2022-11-15T00:50:41;20.48;;;14.70;;
55417;SDS011;41287;47.554;7.844;2022-11-15T00:53:06;19.02;;;14.30;;
55417;SDS011;41287;47.554;7.844;2022-11-15T00:55:31;20.85;;;15.25;;
55417;SDS011;41287;47.554;7.844;2022-11-15T00:57:57;22.15;;;15.52;;
55417;SDS011;41287;47.554;7.844;2022-11-15T01:00:24;20.65;;;14.55;;
55417;SDS011;41287;47.554;7.844;2022-11-15T01:02:50;21.05;;;14.70;;
55417;SDS011;41287;47.554;7.844;2022-11-15T01:05:15;17.42;;;13.63;;
55417;SDS011;41287;47.554;7.844;2022-11-15T01:07:41;21.92;;;14.60;;
55417;SDS011;41287;47.554;7.844;2022-11-15T01:10:06;19.30;;;13.55;;
55417;SDS011;41287;47.554;7.844;2022-11-15T01:12:32;19.60;;;13.95;;
55417;SDS011;41287;47.554;7.844;2022-11-15T01:14:58;19.52;;;14.20;;
55417;SDS011;41287;47.554;7.844;2022-11-15T01:17:23;22.75;;;15.20;;
55417;SDS011;41287;47.554;7.844;2022-11-15T01:19:49;19.13;;;13.30;;
55417;SDS011;41287;47.554;7.844;2022-11-15T01:22:16;19.30;;;14.02;;
55417;SDS011;41287;47.554;7.844;2022-11-15T01:24:42;20.73;;;14.07;;
55417;SDS011;41287;47.554;7.844;2022-11-15T01:27:07;18.45;;;13.60;;
55417;SDS011;41287;47.554;7.844;2022-11-15T01:29:33;20.67;;;13.55;;
55417;SDS011;41287;47.554;7.844;2022-11-15T01:31:58;19.45;;;14.57;;
55417;SDS011;41287;47.554;7.844;2022-11-15T01:34:24;19.15;;;13.75;;
55417;SDS011;41287;47.554;7.844;2022-11-15T01:36:49;19.20;;;13.65;;
55417;SDS011;41287;47.554;7.844;2022-11-15T01:39:14;19.88;;;13.73;;
55417;SDS011;41287;47.554;7.844;2022-11-15T01:41:40;19.33;;;13.25;;
55417;SDS011;41287;47.554;7.844;2022-11-15T01:46:58;19.27;;;13.93;;
55417;SDS011;41287;47.554;7.844;2022-11-15T01:49:26;17.17;;;12.45;;
55417;SDS011;41287;47.554;7.844;2022-11-15T01:51:55;18.50;;;12.82;;
55417;SDS011;41287;47.554;7.844;2022-11-15T01:54:21;19.70;;;14.07;;
55417;SDS011;41287;47.554;7.844;2022-11-15T01:56:51;18.58;;;12.27;;
55417;SDS011;41287;47.554;7.844;2022-11-15T01:59:20;18.77;;;13.18;;
55417;SDS011;41287;47.554;7.844;2022-11-15T02:01:48;18.90;;;12.82;;
55417;SDS011;41287;47.554;7.844;2022-11-15T02:04:18;18.55;;;12.93;;
55417;SDS011;41287;47.554;7.844;2022-11-15T02:06:56;18.02;;;12.43;;
55417;SDS011;41287;47.554;7.844;2022-11-15T02:09:22;17.33;;;12.32;;
55417;SDS011;41287;47.554;7.844;2022-11-15T02:11:47;16.42;;;12.13;;
55417;SDS011;41287;47.554;7.844;2022-11-15T02:14:15;17.88;;;12.77;;
55417;SDS011;41287;47.554;7.844;2022-11-15T02:35:58;18.92;;;12.52;;
55417;SDS011;41287;47.554;7.844;2022-11-15T02:38:47;17.45;;;11.75;;
55417;SDS011;41287;47.554;7.844;2022-11-15T02:41:20;16.63;;;11.82;;
55417;SDS011;41287;47.554;7.844;2022-11-15T02:43:54;16.92;;;11.95;;
55417;SDS011;41287;47.554;7.844;2022-11-15T02:46:27;19.23;;;13.27;;
55417;SDS011;41287;47.554;7.844;2022-11-15T02:49:15;15.75;;;10.70;;
55417;SDS011;41287;47.554;7.844;2022-11-15T02:51:40;16.20;;;11.23;;
55417;SDS011;41287;47.554;7.844;2022-11-15T02:54:12;16.08;;;11.20;;
55417;SDS011;41287;47.554;7.844;2022-11-15T02:56:40;16.95;;;11.20;;
55417;SDS011;41287;47.554;7.844;2022-11-15T02:59:20;15.82;;;11.15;;
55417;SDS011;41287;47.554;7.844;2022-11-15T03:05:28;17.20;;;11.40;;
55417;SDS011;41287;47.554;7.844;2022-11-15T03:10:54;16.77;;;11.45;;
55417;SDS011;41287;47.554;7.844;2022-11-15T03:16:25;13.93;;;10.30;;
55417;SDS011;41287;47.554;7.844;2022-11-15T03:18:55;15.93;;;11.40;;
55417;SDS011;41287;47.554;7.844;2022-11-15T03:21:25;16.23;;;10.85;;
55417;SDS011;41287;47.554;7.844;2022-11-15T03:23:53;14.35;;;9.48;;
55417;SDS011;41287;47.554;7.844;2022-11-15T03:26:21;16.35;;;10.93;;
55417;SDS011;41287;47.554;7.844;2022-11-15T03:28:50;16.10;;;10.68;;
55417;SDS011;41287;47.554;7.844;2022-11-15T03:31:20;14.85;;;9.73;;
55417;SDS011;41287;47.554;7.844;2022-11-15T03:34:07;16.48;;;10.63;;
55417;SDS011;41287;47.554;7.844;2022-11-15T03:36:37;16.10;;;11.68;;
55417;SDS011;41287;47.554;7.844;2022-11-15T03:39:05;15.13;;;9.98;;
55417;SDS011;41287;47.554;7.844;2022-11-15T03:41:35;14.70;;;9.95;;
55417;SDS011;41287;47.554;7.844;2022-11-15T03:44:14;15.15;;;10.38;;
55417;SDS011;41287;47.554;7.844;2022-11-15T03:46:47;16.08;;;10.70;;
55417;SDS011;41287;47.554;7.844;2022-11-15T03:49:24;15.40;;;10.40;;
55417;SDS011;41287;47.554;7.844;2022-11-15T03:51:56;14.65;;;9.98;;
55417;SDS011;41287;47.554;7.844;2022-11-15T03:54:22;15.02;;;9.73;;
55417;SDS011;41287;47.554;7.844;2022-11-15T03:56:47;17.25;;;10.60;;
55417;SDS011;41287;47.554;7.844;2022-11-15T03:59:13;14.23;;;9.10;;
55417;SDS011;41287;47.554;7.844;2022-11-15T04:01:38;14.82;;;9.50;;
55417;SDS011;41287;47.554;7.844;2022-11-15T04:04:04;13.80;;;9.68;;
55417;SDS011;41287;47.554;7.844;2022-11-15T04:06:29;14.20;;;10.07;;
55417;SDS011;41287;47.554;7.844;2022-11-15T04:08:54;14.35;;;10.02;;
55417;SDS011;41287;47.554;7.844;2022-11-15T04:11:20;14.95;;;9.93;;
55417;SDS011;41287;47.554;7.844;2022-11-15T04:13:45;13.93;;;9.48;;
55417;SDS011;41287;47.554;7.844;2022-11-15T04:16:10;14.65;;;10.07;;
55417;SDS011;41287;47.554;7.844;2022-11-15T04:18:36;14.55;;;9.13;;
55417;SDS011;41287;47.554;7.844;2022-11-15T04:21:02;14.05;;;9.02;;
55417;SDS011;41287;47.554;7.844;2022-11-15T04:23:46;15.25;;;9.88;;
55417;SDS011;41287;47.554;7.844;2022-11-15T04:26:30;13.25;;;9.05;;
55417;SDS011;41287;47.554;7.844;2022-11-15T04:28:58;15.00;;;9.88;;
55417;SDS011;41287;47.554;7.844;2022-11-15T04:31:42;14.63;;;9.40;;
55417;SDS011;41287;47.554;7.844;2022-11-15T04:34:11;14.60;;;9.38;;
55417;SDS011;41287;47.554;7.844;2022-11-15T04:36:36;15.48;;;9.63;;
55417;SDS011;41287;47.554;7.844;2022-11-15T04:41:47;15.10;;;8.93;;
55417;SDS011;41287;47.554;7.844;2022-11-15T04:44:13;14.10;;;8.75;;
55417;SDS011;41287;47.554;7.844;2022-11-15T04:46:38;14.52;;;9.93;;
55417;SDS011;41287;47.554;7.844;2022-11-15T04:49:06;14.27;;;10.15;;
55417;SDS011;41287;47.554;7.844;2022-11-15T04:51:31;14.98;;;9.95;;
55417;SDS011;41287;47.554;7.844;2022-11-15T04:53:56;12.77;;;8.60;;
55417;SDS011;41287;47.554;7.844;2022-11-15T04:56:22;13.55;;;8.57;;
55417;SDS011;41287;47.554;7.844;2022-11-15T04:58:50;16.13;;;9.63;;
55417;SDS011;41287;47.554;7.844;2022-11-15T05:01:19;14.00;;;9.40;;
55417;SDS011;41287;47.554;7.844;2022-11-15T05:03:44;14.18;;;9.38;;
55417;SDS011;41287;47.554;7.844;2022-11-15T05:06:28;13.32;;;9.50;;
55417;SDS011;41287;47.554;7.844;2022-11-15T05:08:54;12.75;;;9.18;;
55417;SDS011;41287;47.554;7.844;2022-11-15T05:11:22;14.30;;;9.50;;
55417;SDS011;41287;47.554;7.844;2022-11-15T05:13:48;14.43;;;9.57;;
55417;SDS011;41287;47.554;7.844;2022-11-15T05:16:14;13.60;;;9.35;;
55417;SDS011;41287;47.554;7.844;2022-11-15T05:18:39;13.10;;;8.70;;
55417;SDS011;41287;47.554;7.844;2022-11-15T05:21:09;15.52;;;9.57;;
55417;SDS011;41287;47.554;7.844;2022-11-15T05:23:36;13.63;;;9.85;;
55417;SDS011;41287;47.554;7.844;2022-11-15T05:26:02;14.40;;;9.43;;
55417;SDS011;41287;47.554;7.844;2022-11-15T05:28:29;14.82;;;9.73;;
55417;SDS011;41287;47.554;7.844;2022-11-15T05:33:27;14.80;;;9.43;;
55417;SDS011;41287;47.554;7.844;2022-11-15T05:35:55;13.52;;;9.43;;
55417;SDS011;41287;47.554;7.844;2022-11-15T05:38:25;13.18;;;8.73;;
55417;SDS011;41287;47.554;7.844;2022-11-15T05:40:50;13.65;;;9.45;;
55417;SDS011;41287;47.554;7.844;2022-11-15T05:43:16;13.85;;;9.40;;
55417;SDS011;41287;47.554;7.844;2022-11-15T05:45:42;12.77;;;8.98;;
55417;SDS011;41287;47.554;7.844;2022-11-15T05:48:07;13.93;;;9.60;;
55417;SDS011;41287;47.554;7.844;2022-11-15T05:50:35;14.25;;;9.15;;
55417;SDS011;41287;47.554;7.844;2022-11-15T05:53:03;14.10;;;8.93;;
55417;SDS011;41287;47.554;7.844;2022-11-15T05:55:30;13.70;;;9.68;;
55417;SDS011;41287;47.554;7.844;2022-11-15T05:57:56;13.07;;;8.77;;
55417;SDS011;41287;47.554;7.844;2022-11-15T06:00:21;14.15;;;9.38;;
55417;SDS011;41287;47.554;7.844;2022-11-15T06:02:47;14.77;;;8.65;;
55417;SDS011;41287;47.554;7.844;2022-11-15T06:05:14;14.32;;;8.52;;
55417;SDS011;41287;47.554;7.844;2022-11-15T06:07:40;13.20;;;7.90;;
55417;SDS011;41287;47.554;7.844;2022-11-15T06:10:05;11.38;;;6.88;;
55417;SDS011;41287;47.554;7.844;2022-11-15T06:12:31;13.35;;;7.22;;
55417;SDS011;41287;47.554;7.844;2022-11-15T06:14:56;12.13;;;6.95;;
55417;SDS011;41287;47.554;7.844;2022-11-15T06:17:22;12.20;;;7.53;;
55417;SDS011;41287;47.554;7.844;2022-11-15T06:19:47;10.80;;;7.20;;
55417;SDS011;41287;47.554;7.844;2022-11-15T06:22:12;12.85;;;7.10;;
55417;SDS011;41287;47.554;7.844;2022-11-15T06:24:38;9.93;;;6.30;;
55417;SDS011;41287;47.554;7.844;2022-11-15T06:27:03;15.30;;;7.45;;
55417;SDS011;41287;47.554;7.844;2022-11-15T06:29:28;11.77;;;6.78;;
55417;SDS011;41287;47.554;7.844;2022-11-15T06:31:54;12.38;;;7.55;;
55417;SDS011;41287;47.554;7.844;2022-11-15T06:34:19;11.05;;;7.05;;
55417;SDS011;41287;47.554;7.844;2022-11-15T06:36:44;10.98;;;7.18;;
55417;SDS011;41287;47.554;7.844;2022-11-15T06:39:10;11.57;;;6.72;;
55417;SDS011;41287;47.554;7.844;2022-11-15T06:41:37;12.57;;;7.43;;
55417;SDS011;41287;47.554;7.844;2022-11-15T06:44:03;11.77;;;7.38;;
55417;SDS011;41287;47.554;7.844;2022-11-15T06:46:28;12.43;;;7.43;;
55417;SDS011;41287;47.554;7.844;2022-11-15T06:48:53;11.95;;;6.93;;
55417;SDS011;41287;47.554;7.844;2022-11-15T06:51:19;11.07;;;5.85;;
55417;SDS011;41287;47.554;7.844;2022-11-15T06:53:44;12.65;;;6.22;;
55417;SDS011;41287;47.554;7.844;2022-11-15T06:56:10;11.20;;;5.82;;
55417;SDS011;41287;47.554;7.844;2022-11-15T06:58:35;10.88;;;5.97;;
55417;SDS011;41287;47.554;7.844;2022-11-15T07:01:05;11.60;;;6.30;;
55417;SDS011;41287;47.554;7.844;2022-11-15T07:03:31;11.95;;;6.07;;
55417;SDS011;41287;47.554;7.844;2022-11-15T07:05:59;10.93;;;5.85;;
55417;SDS011;41287;47.554;7.844;2022-11-15T07:08:26;11.90;;;5.90;;
55417;SDS011;41287;47.554;7.844;2022-11-15T07:10:53;9.38;;;6.00;;
55417;SDS011;41287;47.554;7.844;2022-11-15T07:13:18;11.15;;;5.63;;
55417;SDS011;41287;47.554;7.844;2022-11-15T07:15:44;10.45;;;5.57;;
55417;SDS011;41287;47.554;7.844;2022-11-15T07:18:11;11.20;;;5.72;;
55417;SDS011;41287;47.554;7.844;2022-11-15T07:20:37;11.70;;;6.28;;
55417;SDS011;41287;47.554;7.844;2022-11-15T07:23:05;12.02;;;5.82;;
55417;SDS011;41287;47.554;7.844;2022-11-15T07:25:30;10.63;;;6.25;;
55417;SDS011;41287;47.554;7.844;2022-11-15T07:27:56;8.77;;;5.85;;
55417;SDS011;41287;47.554;7.844;2022-11-15T07:30:23;9.93;;;5.57;;
55417;SDS011;41287;47.554;7.844;2022-11-15T07:32:53;9.65;;;5.55;;
55417;SDS011;41287;47.554;7.844;2022-11-15T07:35:21;9.63;;;5.78;;
55417;SDS011;41287;47.554;7.844;2022-11-15T07:37:58;9.15;;;5.53;;
55417;SDS011;41287;47.554;7.844;2022-11-15T07:40:26;8.93;;;5.60;;
55417;SDS011;41287;47.554;7.844;2022-11-15T07:42:52;10.43;;;6.13;;
55417;SDS011;41287;47.554;7.844;2022-11-15T07:45:18;10.40;;;5.80;;
55417;SDS011;41287;47.554;7.844;2022-11-15T07:47:47;8.23;;;5.38;;
55417;SDS011;41287;47.554;7.844;2022-11-15T07:50:13;9.52;;;6.32;;
55417;SDS011;41287;47.554;7.844;2022-11-15T07:52:41;9.48;;;5.88;;
55417;SDS011;41287;47.554;7.844;2022-11-15T07:55:06;9.45;;;6.38;;
55417;SDS011;41287;47.554;7.844;2022-11-15T07:57:32;10.20;;;6.32;;
55417;SDS011;41287;47.554;7.844;2022-11-15T07:59:57;9.45;;;6.18;;
55417;SDS011;41287;47.554;7.844;2022-11-15T08:02:23;8.90;;;5.68;;
55417;SDS011;41287;47.554;7.844;2022-11-15T08:04:48;9.00;;;5.85;;
55417;SDS011;41287;47.554;7.844;2022-11-15T08:07:14;10.13;;;5.95;;
55417;SDS011;41287;47.554;7.844;2022-11-15T08:09:39;11.50;;;6.65;;
55417;SDS011;41287;47.554;7.844;2022-11-15T08:12:04;9.48;;;6.10;;
55417;SDS011;41287;47.554;7.844;2022-11-15T08:14:32;11.77;;;6.03;;
55417;SDS011;41287;47.554;7.844;2022-11-15T08:16:57;9.75;;;5.97;;
55417;SDS011;41287;47.554;7.844;2022-11-15T08:19:23;10.48;;;6.32;;
55417;SDS011;41287;47.554;7.844;2022-11-15T08:21:48;9.25;;;5.90;;
55417;SDS011;41287;47.554;7.844;2022-11-15T08:24:14;8.93;;;5.80;;
55417;SDS011;41287;47.554;7.844;2022-11-15T08:26:40;9.10;;;6.25;;
55417;SDS011;41287;47.554;7.844;2022-11-15T08:29:05;8.93;;;6.07;;
55417;SDS011;41287;47.554;7.844;2022-11-15T08:31:33;8.68;;;5.53;;
55417;SDS011;41287;47.554;7.844;2022-11-15T08:34:00;9.20;;;5.50;;
55417;SDS011;41287;47.554;7.844;2022-11-15T08:36:25;10.23;;;6.10;;
55417;SDS011;41287;47.554;7.844;2022-11-15T08:38:51;9.75;;;6.10;;
55417;SDS011;41287;47.554;7.844;2022-11-15T08:41:23;9.05;;;6.05;;
55417;SDS011;41287;47.554;7.844;2022-11-15T08:43:51;11.88;;;6.15;;
55417;SDS011;41287;47.554;7.844;2022-11-15T08:46:17;10.88;;;6.30;;
55417;SDS011;41287;47.554;7.844;2022-11-15T08:48:43;10.10;;;6.22;;
55417;SDS011;41287;47.554;7.844;2022-11-15T08:51:08;10.82;;;6.30;;
55417;SDS011;41287;47.554;7.844;2022-11-15T08:53:34;8.40;;;5.65;;
55417;SDS011;41287;47.554;7.844;2022-11-15T08:55:59;10.95;;;6.72;;
55417;SDS011;41287;47.554;7.844;2022-11-15T08:58:25;10.00;;;6.18;;
55417;SDS011;41287;47.554;7.844;2022-11-15T09:00:50;9.48;;;6.05;;
55417;SDS011;41287;47.554;7.844;2022-11-15T09:03:20;12.13;;;6.60;;
55417;SDS011;41287;47.554;7.844;2022-11-15T09:05:45;8.20;;;5.70;;
55417;SDS011;41287;47.554;7.844;2022-11-15T09:08:10;10.35;;;6.10;;
55417;SDS011;41287;47.554;7.844;2022-11-15T09:10:37;10.32;;;5.75;;
55417;SDS011;41287;47.554;7.844;2022-11-15T09:13:03;7.88;;;5.45;;
55417;SDS011;41287;47.554;7.844;2022-11-15T09:15:28;9.70;;;6.10;;
55417;SDS011;41287;47.554;7.844;2022-11-15T09:17:53;9.43;;;5.68;;
55417;SDS011;41287;47.554;7.844;2022-11-15T09:20:23;9.63;;;5.75;;
55417;SDS011;41287;47.554;7.844;2022-11-15T09:22:48;11.77;;;6.10;;
55417;SDS011;41287;47.554;7.844;2022-11-15T09:25:13;10.93;;;6.22;;
55417;SDS011;41287;47.554;7.844;2022-11-15T09:27:38;11.52;;;5.45;;
55417;SDS011;41287;47.554;7.844;2022-11-15T09:30:04;10.65;;;5.40;;
55417;SDS011;41287;47.554;7.844;2022-11-15T09:32:31;8.88;;;5.70;;
55417;SDS011;41287;47.554;7.844;2022-11-15T09:34:57;10.50;;;5.95;;
55417;SDS011;41287;47.554;7.844;2022-11-15T09:37:22;8.10;;;5.35;;
55417;SDS011;41287;47.554;7.844;2022-11-15T09:39:48;10.20;;;6.07;;
55417;SDS011;41287;47.554;7.844;2022-11-15T09:50:07;10.63;;;6.10;;
55417;SDS011;41287;47.554;7.844;2022-11-15T09:52:38;9.00;;;5.72;;
55417;SDS011;41287;47.554;7.844;2022-11-15T09:55:07;10.00;;;5.90;;
55417;SDS011;41287;47.554;7.844;2022-11-15T10:02:56;9.38;;;6.20;;
55417;SDS011;41287;47.554;7.844;2022-11-15T10:05:38;8.88;;;5.72;;
55417;SDS011;41287;47.554;7.844;2022-11-15T10:11:06;12.77;;;6.23;;
55417;SDS011;41287;47.554;7.844;2022-11-15T10:13:34;11.93;;;6.10;;
55417;SDS011;41287;47.554;7.844;2022-11-15T10:19:04;9.80;;;5.50;;
55417;SDS011;41287;47.554;7.844;2022-11-15T10:24:28;7.65;;;5.07;;
55417;SDS011;41287;47.554;7.844;2022-11-15T10:26:59;11.10;;;6.60;;
55417;SDS011;41287;47.554;7.844;2022-11-15T10:29:25;10.35;;;6.13;;
55417;SDS011;41287;47.554;7.844;2022-11-15T10:31:51;18.20;;;5.93;;
55417;SDS011;41287;47.554;7.844;2022-11-15T10:34:17;9.57;;;6.20;;
55417;SDS011;41287;47.554;7.844;2022-11-15T10:36:58;9.02;;;5.63;;
55417;SDS011;41287;47.554;7.844;2022-11-15T10:39:26;9.63;;;5.00;;
55417;SDS011;41287;47.554;7.844;2022-11-15T10:41:52;10.73;;;5.70;;
55417;SDS011;41287;47.554;7.844;2022-11-15T10:46:46;8.20;;;5.47;;
55417;SDS011;41287;47.554;7.844;2022-11-15T10:49:33;9.60;;;5.45;;
55417;SDS011;41287;47.554;7.844;2022-11-15T10:54:47;10.32;;;5.80;;
55417;SDS011;41287;47.554;7.844;2022-11-15T10:57:16;8.85;;;5.80;;
55417;SDS011;41287;47.554;7.844;2022-11-15T10:59:45;9.05;;;5.53;;
55417;SDS011;41287;47.554;7.844;2022-11-15T11:04:53;8.23;;;5.68;;
55417;SDS011;41287;47.554;7.844;2022-11-15T11:07:23;10.55;;;6.15;;
55417;SDS011;41287;47.554;7.844;2022-11-15T11:09:56;9.30;;;5.43;;
55417;SDS011;41287;47.554;7.844;2022-11-15T11:12:28;7.68;;;5.25;;
55417;SDS011;41287;47.554;7.844;2022-11-15T11:15:00;8.35;;;5.45;;
55417;SDS011;41287;47.554;7.844;2022-11-15T11:17:36;9.75;;;5.80;;
55417;SDS011;41287;47.554;7.844;2022-11-15T11:20:38;7.68;;;4.97;;
55417;SDS011;41287;47.554;7.844;2022-11-15T11:34:19;8.75;;;5.70;;
55417;SDS011;41287;47.554;7.844;2022-11-15T11:37:00;10.40;;;5.63;;
55417;SDS011;41287;47.554;7.844;2022-11-15T11:39:40;9.57;;;5.80;;
55417;SDS011;41287;47.554;7.844;2022-11-15T11:43:04;9.55;;;5.88;;
55417;SDS011;41287;47.554;7.844;2022-11-15T11:50:38;9.27;;;5.20;;
55417;SDS011;41287;47.554;7.844;2022-11-15T11:53:12;8.85;;;5.47;;
55417;SDS011;41287;47.554;7.844;2022-11-15T11:55:43;8.63;;;5.25;;
55417;SDS011;41287;47.554;7.844;2022-11-15T12:00:56;8.73;;;5.30;;
55417;SDS011;41287;47.554;7.844;2022-11-15T12:03:32;8.68;;;5.05;;
55417;SDS011;41287;47.554;7.844;2022-11-15T12:09:06;8.77;;;5.65;;
55417;SDS011;41287;47.554;7.844;2022-11-15T12:12:00;9.23;;;5.85;;
55417;SDS011;41287;47.554;7.844;2022-11-15T12:14:45;8.45;;;5.47;;
55417;SDS011;41287;47.554;7.844;2022-11-15T12:17:16;10.50;;;5.55;;
55417;SDS011;41287;47.554;7.844;2022-11-15T12:19:44;10.32;;;5.30;;
55417;SDS011;41287;47.554;7.844;2022-11-15T12:22:13;9.35;;;5.10;;
55417;SDS011;41287;47.554;7.844;2022-11-15T12:24:53;9.00;;;5.53;;
55417;SDS011;41287;47.554;7.844;2022-11-15T12:27:45;8.30;;;5.28;;
55417;SDS011;41287;47.554;7.844;2022-11-15T12:30:16;9.50;;;5.38;;
55417;SDS011;41287;47.554;7.844;2022-11-15T12:32:57;10.07;;;5.47;;
55417;SDS011;41287;47.554;7.844;2022-11-15T12:35:37;9.57;;;5.53;;
55417;SDS011;41287;47.554;7.844;2022-11-15T12:38:08;10.02;;;5.80;;
55417;SDS011;41287;47.554;7.844;2022-11-15T12:40:36;10.05;;;5.70;;
55417;SDS011;41287;47.554;7.844;2022-11-15T12:45:39;9.05;;;4.85;;
55417;SDS011;41287;47.554;7.844;2022-11-15T12:58:46;8.95;;;5.30;;
55417;SDS011;41287;47.554;7.844;2022-11-15T13:06:48;7.45;;;4.97;;
55417;SDS011;41287;47.554;7.844;2022-11-15T13:11:57;9.63;;;4.45;;
55417;SDS011;41287;47.554;7.844;2022-11-15T13:20:00;8.50;;;4.88;;
55417;SDS011;41287;47.554;7.844;2022-11-15T13:25:16;8.13;;;5.05;;
55417;SDS011;41287;47.554;7.844;2022-11-15T13:27:48;8.38;;;5.25;;
55417;SDS011;41287;47.554;7.844;2022-11-15T13:30:20;7.53;;;4.90;;
55417;SDS011;41287;47.554;7.844;2022-11-15T13:32:48;9.23;;;5.20;;
55417;SDS011;41287;47.554;7.844;2022-11-15T13:35:18;9.25;;;5.07;;
55417;SDS011;41287;47.554;7.844;2022-11-15T13:37:49;7.15;;;4.60;;
55417;SDS011;41287;47.554;7.844;2022-11-15T13:40:19;9.57;;;5.13;;
55417;SDS011;41287;47.554;7.844;2022-11-15T13:42:59;9.20;;;5.18;;
55417;SDS011;41287;47.554;7.844;2022-11-15T13:45:38;7.80;;;5.00;;
55417;SDS011;41287;47.554;7.844;2022-11-15T13:48:08;9.02;;;4.88;;
55417;SDS011;41287;47.554;7.844;2022-11-15T13:50:35;8.57;;;5.18;;
55417;SDS011;41287;47.554;7.844;2022-11-15T13:53:03;7.63;;;5.13;;
55417;SDS011;41287;47.554;7.844;2022-11-15T13:55:30;7.13;;;4.80;;
55417;SDS011;41287;47.554;7.844;2022-11-15T13:57:58;8.57;;;4.78;;
55417;SDS011;41287;47.554;7.844;2022-11-15T14:00:40;7.93;;;4.95;;
55417;SDS011;41287;47.554;7.844;2022-11-15T14:05:39;10.02;;;4.60;;
55417;SDS011;41287;47.554;7.844;2022-11-15T14:10:45;6.80;;;4.70;;
55417;SDS011;41287;47.554;7.844;2022-11-15T14:13:32;8.98;;;4.45;;
55417;SDS011;41287;47.554;7.844;2022-11-15T14:16:16;7.53;;;4.78;;
55417;SDS011;41287;47.554;7.844;2022-11-15T14:18:48;7.18;;;4.63;;
55417;SDS011;41287;47.554;7.844;2022-11-15T14:21:15;7.93;;;5.07;;
55417;SDS011;41287;47.554;7.844;2022-11-15T14:23:41;9.63;;;4.93;;
55417;SDS011;41287;47.554;7.844;2022-11-15T14:26:32;8.48;;;4.82;;
55417;SDS011;41287;47.554;7.844;2022-11-15T14:31:51;7.43;;;4.80;;
55417;SDS011;41287;47.554;7.844;2022-11-15T14:34:17;7.13;;;4.30;;
55417;SDS011;41287;47.554;7.844;2022-11-15T14:36:42;8.48;;;5.00;;
55417;SDS011;41287;47.554;7.844;2022-11-15T14:39:07;8.65;;;4.45;;
55417;SDS011;41287;47.554;7.844;2022-11-15T14:41:36;7.53;;;4.93;;
55417;SDS011;41287;47.554;7.844;2022-11-15T14:44:03;9.10;;;5.15;;
55417;SDS011;41287;47.554;7.844;2022-11-15T14:46:29;6.65;;;4.43;;
55417;SDS011;41287;47.554;7.844;2022-11-15T14:48:55;7.38;;;4.30;;
55417;SDS011;41287;47.554;7.844;2022-11-15T14:51:20;6.93;;;4.15;;
55417;SDS011;41287;47.554;7.844;2022-11-15T14:53:46;7.28;;;4.55;;
55417;SDS011;41287;47.554;7.844;2022-11-15T14:56:14;7.65;;;4.95;;
55417;SDS011;41287;47.554;7.844;2022-11-15T14:58:41;7.32;;;4.55;;
55417;SDS011;41287;47.554;7.844;2022-11-15T15:01:13;7.88;;;4.55;;
55417;SDS011;41287;47.554;7.844;2022-11-15T15:03:49;8.02;;;4.50;;
55417;SDS011;41287;47.554;7.844;2022-11-15T15:06:16;7.45;;;4.50;;
55417;SDS011;41287;47.554;7.844;2022-11-15T15:08:42;7.32;;;4.30;;
55417;SDS011;41287;47.554;7.844;2022-11-15T15:11:12;6.55;;;4.38;;
55417;SDS011;41287;47.554;7.844;2022-11-15T15:13:39;7.25;;;4.43;;
55417;SDS011;41287;47.554;7.844;2022-11-15T15:16:05;6.53;;;4.40;;
55417;SDS011;41287;47.554;7.844;2022-11-15T15:18:30;6.32;;;4.35;;
55417;SDS011;41287;47.554;7.844;2022-11-15T15:20:56;6.32;;;4.20;;
55417;SDS011;41287;47.554;7.844;2022-11-15T15:23:31;5.03;;;3.85;;
55417;SDS011;41287;47.554;7.844;2022-11-15T15:25:57;7.88;;;4.90;;
55417;SDS011;41287;47.554;7.844;2022-11-15T15:28:23;7.05;;;4.45;;
55417;SDS011;41287;47.554;7.844;2022-11-15T15:30:48;9.07;;;4.60;;
55417;SDS011;41287;47.554;7.844;2022-11-15T15:33:14;8.82;;;4.63;;
55417;SDS011;41287;47.554;7.844;2022-11-15T15:35:40;6.82;;;3.92;;
55417;SDS011;41287;47.554;7.844;2022-11-15T15:38:05;8.13;;;4.25;;
55417;SDS011;41287;47.554;7.844;2022-11-15T15:40:31;8.27;;;4.00;;
55417;SDS011;41287;47.554;7.844;2022-11-15T15:42:58;6.10;;;4.05;;
55417;SDS011;41287;47.554;7.844;2022-11-15T15:45:25;6.97;;;4.32;;
55417;SDS011;41287;47.554;7.844;2022-11-15T15:47:51;6.72;;;4.70;;
55417;SDS011;41287;47.554;7.844;2022-11-15T15:52:45;7.45;;;4.10;;
55417;SDS011;41287;47.554;7.844;2022-11-15T15:55:10;7.10;;;4.13;;
55417;SDS011;41287;47.554;7.844;2022-11-15T15:57:36;6.43;;;3.90;;
55417;SDS011;41287;47.554;7.844;2022-11-15T16:00:02;8.20;;;4.75;;
55417;SDS011;41287;47.554;7.844;2022-11-15T16:02:28;7.25;;;4.55;;
55417;SDS011;41287;47.554;7.844;2022-11-15T16:04:54;6.53;;;4.20;;
55417;SDS011;41287;47.554;7.844;2022-11-15T16:07:22;6.15;;;4.10;;
55417;SDS011;41287;47.554;7.844;2022-11-15T16:09:50;6.82;;;4.15;;
55417;SDS011;41287;47.554;7.844;2022-11-15T16:12:25;6.32;;;4.10;;
55417;SDS011;41287;47.554;7.844;2022-11-15T16:14:54;8.15;;;4.50;;
55417;SDS011;41287;47.554;7.844;2022-11-15T16:17:23;4.88;;;3.75;;
55417;SDS011;41287;47.554;7.844;2022-11-15T16:19:50;7.28;;;4.00;;
55417;SDS011;41287;47.554;7.844;2022-11-15T16:22:16;8.57;;;4.22;;
55417;SDS011;41287;47.554;7.844;2022-11-15T16:24:41;7.43;;;3.90;;
55417;SDS011;41287;47.554;7.844;2022-11-15T16:27:16;6.32;;;4.07;;
55417;SDS011;41287;47.554;7.844;2022-11-15T16:29:43;6.35;;;3.97;;
55417;SDS011;41287;47.554;7.844;2022-11-15T16:32:08;6.28;;;3.55;;
55417;SDS011;41287;47.554;7.844;2022-11-15T16:34:34;6.15;;;4.05;;
55417;SDS011;41287;47.554;7.844;2022-11-15T16:37:00;6.65;;;4.07;;
55417;SDS011;41287;47.554;7.844;2022-11-15T16:39:25;6.13;;;3.90;;
55417;SDS011;41287;47.554;7.844;2022-11-15T16:41:52;8.45;;;4.25;;
55417;SDS011;41287;47.554;7.844;2022-11-15T16:44:18;8.32;;;4.55;;
55417;SDS011;41287;47.554;7.844;2022-11-15T16:46:43;6.20;;;3.78;;
55417;SDS011;41287;47.554;7.844;2022-11-15T16:49:13;6.90;;;3.85;;
55417;SDS011;41287;47.554;7.844;2022-11-15T16:51:39;7.45;;;3.85;;
55417;SDS011;41287;47.554;7.844;2022-11-15T16:54:05;4.85;;;3.50;;
55417;SDS011;41287;47.554;7.844;2022-11-15T16:56:31;7.00;;;4.05;;